TimeEST,TemperatureF,Dew PointF,Humidity,Sea Level PressureIn,VisibilityMPH,Wind Direction,Wind SpeedMPH,Gust SpeedMPH,PrecipitationIn,Events,Conditions,WindDirDegrees,DateUTC
12:53 AM,55.0,46.9,74,30.11,10.0,WNW,8.1,-,N/A,,Clear,290,2013-01-18 05:53:00
1:53 AM,52.0,46.0,80,30.12,10.0,WNW,6.9,-,N/A,,Clear,300,2013-01-18 06:53:00
2:53 AM,52.0,46.0,80,30.12,10.0,NW,8.1,-,N/A,,Clear,310,2013-01-18 07:53:00
3:53 AM,51.1,44.1,77,30.14,10.0,NW,6.9,-,N/A,,Scattered Clouds,320,2013-01-18 08:53:00
4:05 AM,51.8,44.6,76,30.15,10.0,NNW,8.1,-,N/A,,Mostly Cloudy,330,2013-01-18 09:05:00
4:32 AM,51.8,44.6,76,30.15,10.0,NNW,8.1,-,N/A,,Scattered Clouds,340,2013-01-18 09:32:00
4:53 AM,51.1,43.0,74,30.16,10.0,NW,10.4,18.4,N/A,,Mostly Cloudy,320,2013-01-18 09:53:00
5:38 AM,48.2,39.2,71,30.17,10.0,NW,10.4,-,N/A,,Scattered Clouds,320,2013-01-18 10:38:00
5:53 AM,48.0,39.0,71,30.18,10.0,NW,10.4,-,N/A,,Scattered Clouds,310,2013-01-18 10:53:00
6:00 AM,48.2,39.2,71,30.18,10.0,NW,10.4,-,N/A,,Mostly Cloudy,320,2013-01-18 11:00:00
6:53 AM,46.9,37.9,71,30.20,10.0,NW,11.5,-,N/A,,Overcast,310,2013-01-18 11:53:00
7:53 AM,46.0,37.9,73,30.23,10.0,NW,9.2,-,N/A,,Mostly Cloudy,310,2013-01-18 12:53:00
8:06 AM,46.4,37.4,71,30.23,10.0,WNW,8.1,-,N/A,,Partly Cloudy,300,2013-01-18 13:06:00
8:53 AM,50.0,39.9,68,30.24,10.0,WNW,8.1,-,N/A,,Clear,300,2013-01-18 13:53:00
9:53 AM,55.0,43.0,64,30.25,10.0,WNW,10.4,-,N/A,,Clear,300,2013-01-18 14:53:00
10:53 AM,60.1,46.0,60,30.24,10.0,NW,10.4,-,N/A,,Clear,310,2013-01-18 15:53:00
11:53 AM,64.9,50.0,58,30.22,10.0,Variable,5.8,-,N/A,,Scattered Clouds,0,2013-01-18 16:53:00
12:53 PM,68.0,54.0,61,30.20,10.0,Variable,4.6,-,N/A,,Mostly Cloudy,0,2013-01-18 17:53:00
1:53 PM,71.1,53.1,53,30.18,10.0,ENE,6.9,18.4,N/A,,Overcast,60,2013-01-18 18:53:00
2:53 PM,64.9,57.9,78,30.18,10.0,NE,5.8,-,0.01,Rain,Rain,50,2013-01-18 19:53:00
3:14 PM,66.2,57.2,73,30.18,10.0,NE,9.2,17.3,0.01,,Overcast,40,2013-01-18 20:14:00
3:53 PM,68.0,55.9,65,30.18,10.0,NE,9.2,17.3,0.01,,Overcast,40,2013-01-18 20:53:00
4:00 PM,69.8,55.4,60,30.18,10.0,NE,8.1,17.3,N/A,,Overcast,50,2013-01-18 21:00:00
4:53 PM,68.0,54.0,61,30.19,10.0,NE,6.9,-,0.00,,Mostly Cloudy,50,2013-01-18 21:53:00
5:53 PM,68.0,55.0,63,30.20,10.0,ENE,9.2,-,N/A,,Clear,60,2013-01-18 22:53:00
6:53 PM,68.0,57.0,68,30.22,10.0,NE,12.7,18.4,N/A,,Scattered Clouds,40,2013-01-18 23:53:00
7:53 PM,68.0,57.9,70,30.22,10.0,ENE,10.4,20.7,0.00,,Mostly Cloudy,70,2013-01-19 00:53:00
8:53 PM,66.9,59.0,76,30.23,9.0,ENE,12.7,20.7,0.00,Rain,Light Rain,70,2013-01-19 01:53:00
9:16 PM,64.4,60.8,88,30.23,4.0,ENE,9.2,-,0.01,Rain,Rain,60,2013-01-19 02:16:00
9:44 PM,66.2,60.8,83,30.22,10.0,ENE,13.8,19.6,0.01,,Overcast,70,2013-01-19 02:44:00
9:53 PM,66.0,61.0,84,30.23,6.0,ENE,16.1,21.9,0.02,Rain,Light Rain,70,2013-01-19 02:53:00
10:21 PM,66.2,60.8,83,30.23,10.0,East,15.0,24.2,0.00,,Overcast,80,2013-01-19 03:21:00
10:53 PM,66.0,59.0,78,30.22,10.0,ENE,10.4,18.4,0.00,,Overcast,70,2013-01-19 03:53:00
11:53 PM,66.0,60.1,81,30.21,9.0,ENE,9.2,24.2,0.00,Rain,Light Rain,70,2013-01-19 04:53:00